sensor_id;sensor_type;location;lat;lon;timestamp;pressure;altitude;pressure_sealevel;temperature;humidity
58662;BME280;44432;49.786;22.760;2023-04-05T00:00:54;99741.85;;;-0.34;65.04
58662;BME280;44432;49.786;22.760;2023-04-05T00:03:25;99741.09;;;-0.37;65.11
58662;BME280;44432;49.786;22.760;2023-04-05T00:05:57;99739.67;;;-0.43;65.05
58662;BME280;44432;49.786;22.760;2023-04-05T00:08:28;99739.49;;;-0.49;65.28
58662;BME280;44432;49.786;22.760;2023-04-05T00:10:59;99735.10;;;-0.56;65.29
58662;BME280;44432;49.786;22.760;2023-04-05T00:13:30;99737.42;;;-0.61;65.46
58662;BME280;44432;49.786;22.760;2023-04-05T00:16:00;99737.07;;;-0.67;65.62
58662;BME280;44432;49.786;22.760;2023-04-05T00:18:31;99734.29;;;-0.73;65.88
58662;BME280;44432;49.786;22.760;2023-04-05T00:21:02;99736.14;;;-0.78;65.99
58662;BME280;44432;49.786;22.760;2023-04-05T00:23:33;99734.65;;;-0.85;66.36
58662;BME280;44432;49.786;22.760;2023-04-05T00:26:05;99735.02;;;-0.89;66.36
58662;BME280;44432;49.786;22.760;2023-04-05T00:28:35;99735.29;;;-0.95;66.48
58662;BME280;44432;49.786;22.760;2023-04-05T00:31:06;99734.36;;;-0.98;66.63
58662;BME280;44432;49.786;22.760;2023-04-05T00:33:37;99733.40;;;-1.01;66.72
58662;BME280;44432;49.786;22.760;2023-04-05T00:36:12;99734.49;;;-1.06;66.80
58662;BME280;44432;49.786;22.760;2023-04-05T00:38:45;99734.49;;;-1.10;67.07
58662;BME280;44432;49.786;22.760;2023-04-05T00:41:16;99728.41;;;-1.13;67.13
58662;BME280;44432;49.786;22.760;2023-04-05T00:43:47;99725.88;;;-1.16;67.49
58662;BME280;44432;49.786;22.760;2023-04-05T00:46:17;99731.08;;;-1.19;67.61
58662;BME280;44432;49.786;22.760;2023-04-05T00:48:48;99723.65;;;-1.20;67.43
58662;BME280;44432;49.786;22.760;2023-04-05T00:51:19;99724.92;;;-1.22;67.40
58662;BME280;44432;49.786;22.760;2023-04-05T00:53:53;99725.68;;;-1.22;67.69
58662;BME280;44432;49.786;22.760;2023-04-05T00:56:24;99719.99;;;-1.24;67.63
58662;BME280;44432;49.786;22.760;2023-04-05T00:58:54;99722.21;;;-1.26;67.72
58662;BME280;44432;49.786;22.760;2023-04-05T01:01:26;99718.37;;;-1.27;67.58
58662;BME280;44432;49.786;22.760;2023-04-05T01:03:59;99721.58;;;-1.29;67.80
58662;BME280;44432;49.786;22.760;2023-04-05T01:06:39;99720.17;;;-1.29;67.83
58662;BME280;44432;49.786;22.760;2023-04-05T01:09:20;99721.24;;;-1.29;68.27
58662;BME280;44432;49.786;22.760;2023-04-05T01:11:53;99719.95;;;-1.30;68.17
58662;BME280;44432;49.786;22.760;2023-04-05T01:14:24;99716.87;;;-1.30;68.23
58662;BME280;44432;49.786;22.760;2023-04-05T01:16:54;99715.59;;;-1.32;68.31
58662;BME280;44432;49.786;22.760;2023-04-05T01:19:28;99710.81;;;-1.33;68.33
58662;BME280;44432;49.786;22.760;2023-04-05T01:22:05;99712.50;;;-1.32;68.28
58662;BME280;44432;49.786;22.760;2023-04-05T01:25:05;99712.73;;;-1.33;68.24
58662;BME280;44432;49.786;22.760;2023-04-05T01:28:04;99713.45;;;-1.33;68.37
58662;BME280;44432;49.786;22.760;2023-04-05T01:30:45;99708.27;;;-1.33;68.44
58662;BME280;44432;49.786;22.760;2023-04-05T01:33:30;99707.06;;;-1.33;68.35
58662;BME280;44432;49.786;22.760;2023-04-05T01:36:07;99709.45;;;-1.33;68.47
58662;BME280;44432;49.786;22.760;2023-04-05T01:38:40;99703.27;;;-1.35;68.63
58662;BME280;44432;49.786;22.760;2023-04-05T01:41:13;99708.58;;;-1.35;68.84
58662;BME280;44432;49.786;22.760;2023-04-05T01:43:44;99711.87;;;-1.37;68.85
58662;BME280;44432;49.786;22.760;2023-04-05T01:46:14;99712.15;;;-1.38;68.86
58662;BME280;44432;49.786;22.760;2023-04-05T01:48:45;99710.73;;;-1.40;68.87
58662;BME280;44432;49.786;22.760;2023-04-05T01:51:16;99707.09;;;-1.42;69.32
58662;BME280;44432;49.786;22.760;2023-04-05T01:53:48;99708.08;;;-1.43;69.43
58662;BME280;44432;49.786;22.760;2023-04-05T01:56:19;99708.73;;;-1.45;69.33
58662;BME280;44432;49.786;22.760;2023-04-05T01:58:49;99713.21;;;-1.47;69.68
58662;BME280;44432;49.786;22.760;2023-04-05T02:01:20;99716.29;;;-1.49;69.52
58662;BME280;44432;49.786;22.760;2023-04-05T02:03:51;99714.83;;;-1.50;69.76
58662;BME280;44432;49.786;22.760;2023-04-05T02:06:22;99716.31;;;-1.51;69.90
58662;BME280;44432;49.786;22.760;2023-04-05T02:08:53;99719.22;;;-1.53;69.93
58662;BME280;44432;49.786;22.760;2023-04-05T02:11:24;99715.47;;;-1.55;70.21
58662;BME280;44432;49.786;22.760;2023-04-05T02:13:54;99721.69;;;-1.57;70.16
58662;BME280;44432;49.786;22.760;2023-04-05T02:16:25;99717.65;;;-1.59;70.49
58662;BME280;44432;49.786;22.760;2023-04-05T02:18:56;99719.41;;;-1.59;70.28
58662;BME280;44432;49.786;22.760;2023-04-05T02:21:28;99718.64;;;-1.60;70.49
58662;BME280;44432;49.786;22.760;2023-04-05T02:24:00;99720.83;;;-1.62;70.71
58662;BME280;44432;49.786;22.760;2023-04-05T02:26:31;99720.54;;;-1.65;70.82
58662;BME280;44432;49.786;22.760;2023-04-05T02:29:01;99717.73;;;-1.67;70.86
58662;BME280;44432;49.786;22.760;2023-04-05T02:31:32;99714.39;;;-1.66;71.08
58662;BME280;44432;49.786;22.760;2023-04-05T02:34:03;99712.10;;;-1.67;71.01
58662;BME280;44432;49.786;22.760;2023-04-05T02:36:37;99713.07;;;-1.69;71.15
58662;BME280;44432;49.786;22.760;2023-04-05T02:39:10;99714.55;;;-1.70;71.20
58662;BME280;44432;49.786;22.760;2023-04-05T02:41:42;99716.20;;;-1.71;71.26
58662;BME280;44432;49.786;22.760;2023-04-05T02:44:12;99712.73;;;-1.73;71.37
58662;BME280;44432;49.786;22.760;2023-04-05T02:46:43;99715.44;;;-1.75;71.41
58662;BME280;44432;49.786;22.760;2023-04-05T02:49:14;99711.39;;;-1.75;71.51
58662;BME280;44432;49.786;22.760;2023-04-05T02:51:45;99713.55;;;-1.77;71.65
58662;BME280;44432;49.786;22.760;2023-04-05T02:54:15;99707.41;;;-1.80;71.69
58662;BME280;44432;49.786;22.760;2023-04-05T02:56:46;99710.61;;;-1.79;71.84
58662;BME280;44432;49.786;22.760;2023-04-05T02:59:18;99710.00;;;-1.80;71.89
58662;BME280;44432;49.786;22.760;2023-04-05T03:01:49;99708.55;;;-1.81;72.17
58662;BME280;44432;49.786;22.760;2023-04-05T03:04:20;99708.23;;;-1.81;72.20
58662;BME280;44432;49.786;22.760;2023-04-05T03:06:50;99709.47;;;-1.82;72.22
58662;BME280;44432;49.786;22.760;2023-04-05T03:09:23;99709.73;;;-1.83;72.25
58662;BME280;44432;49.786;22.760;2023-04-05T03:11:55;99710.74;;;-1.82;72.25
58662;BME280;44432;49.786;22.760;2023-04-05T03:14:26;99706.60;;;-1.82;72.31
58662;BME280;44432;49.786;22.760;2023-04-05T03:16:57;99706.45;;;-1.85;72.53
58662;BME280;44432;49.786;22.760;2023-04-05T03:19:28;99706.13;;;-1.87;72.56
58662;BME280;44432;49.786;22.760;2023-04-05T03:21:58;99702.44;;;-1.88;72.49
58662;BME280;44432;49.786;22.760;2023-04-05T03:24:29;99700.48;;;-1.90;72.70
58662;BME280;44432;49.786;22.760;2023-04-05T03:27:01;99702.25;;;-1.90;72.65
58662;BME280;44432;49.786;22.760;2023-04-05T03:29:34;99702.09;;;-1.90;72.78
58662;BME280;44432;49.786;22.760;2023-04-05T03:32:05;99704.19;;;-1.91;72.87
58662;BME280;44432;49.786;22.760;2023-04-05T03:34:40;99708.39;;;-1.92;72.99
58662;BME280;44432;49.786;22.760;2023-04-05T03:37:10;99709.72;;;-1.93;72.98
58662;BME280;44432;49.786;22.760;2023-04-05T03:39:41;99710.88;;;-1.92;73.08
58662;BME280;44432;49.786;22.760;2023-04-05T03:42:12;99716.56;;;-1.93;72.96
58662;BME280;44432;49.786;22.760;2023-04-05T03:44:44;99715.63;;;-1.94;73.17
58662;BME280;44432;49.786;22.760;2023-04-05T03:47:16;99717.22;;;-1.94;73.12
58662;BME280;44432;49.786;22.760;2023-04-05T03:49:46;99716.36;;;-1.94;73.16
58662;BME280;44432;49.786;22.760;2023-04-05T03:52:17;99715.03;;;-1.93;73.17
58662;BME280;44432;49.786;22.760;2023-04-05T03:54:48;99715.80;;;-1.92;73.26
58662;BME280;44432;49.786;22.760;2023-04-05T03:57:19;99711.43;;;-1.91;73.44
58662;BME280;44432;49.786;22.760;2023-04-05T03:59:49;99712.92;;;-1.90;73.23
58662;BME280;44432;49.786;22.760;2023-04-05T04:02:20;99710.58;;;-1.89;73.17
58662;BME280;44432;49.786;22.760;2023-04-05T04:04:51;99709.14;;;-1.88;73.41
58662;BME280;44432;49.786;22.760;2023-04-05T04:07:22;99707.00;;;-1.87;73.34
58662;BME280;44432;49.786;22.760;2023-04-05T04:09:52;99707.33;;;-1.87;73.30
58662;BME280;44432;49.786;22.760;2023-04-05T04:12:24;99713.80;;;-1.88;73.48
58662;BME280;44432;49.786;22.760;2023-04-05T04:14:55;99715.48;;;-1.88;73.39
58662;BME280;44432;49.786;22.760;2023-04-05T04:17:31;99715.50;;;-1.86;73.36
58662;BME280;44432;49.786;22.760;2023-04-05T04:20:02;99717.55;;;-1.83;73.37
58662;BME280;44432;49.786;22.760;2023-04-05T04:22:36;99718.88;;;-1.80;73.29
58662;BME280;44432;49.786;22.760;2023-04-05T04:25:11;99720.97;;;-1.79;73.37
58662;BME280;44432;49.786;22.760;2023-04-05T04:27:43;99722.67;;;-1.76;73.43
58662;BME280;44432;49.786;22.760;2023-04-05T04:30:15;99718.36;;;-1.78;73.46
58662;BME280;44432;49.786;22.760;2023-04-05T04:32:46;99728.98;;;-1.69;73.36
58662;BME280;44432;49.786;22.760;2023-04-05T04:35:20;99730.02;;;-1.65;73.28
58662;BME280;44432;49.786;22.760;2023-04-05T04:37:55;99730.36;;;-1.60;73.43
58662;BME280;44432;49.786;22.760;2023-04-05T04:40:28;99730.80;;;-1.57;73.19
58662;BME280;44432;49.786;22.760;2023-04-05T04:43:07;99726.77;;;-1.55;73.06
58662;BME280;44432;49.786;22.760;2023-04-05T04:45:42;99730.34;;;-1.53;72.96
58662;BME280;44432;49.786;22.760;2023-04-05T04:48:15;99728.17;;;-1.50;73.02
58662;BME280;44432;49.786;22.760;2023-04-05T04:50:47;99729.83;;;-1.45;73.07
58662;BME280;44432;49.786;22.760;2023-04-05T04:53:19;99724.45;;;-1.39;72.90
58662;BME280;44432;49.786;22.760;2023-04-05T04:55:50;99726.59;;;-1.33;72.93
58662;BME280;44432;49.786;22.760;2023-04-05T04:58:21;99727.66;;;-1.27;72.79
58662;BME280;44432;49.786;22.760;2023-04-05T05:00:51;99729.49;;;-1.18;72.87
58662;BME280;44432;49.786;22.760;2023-04-05T05:03:22;99730.04;;;-1.10;72.86
58662;BME280;44432;49.786;22.760;2023-04-05T05:05:53;99730.70;;;-1.02;72.75
58662;BME280;44432;49.786;22.760;2023-04-05T05:08:23;99732.82;;;-0.96;72.26
58662;BME280;44432;49.786;22.760;2023-04-05T05:10:54;99735.86;;;-0.95;72.07
58662;BME280;44432;49.786;22.760;2023-04-05T05:13:25;99732.10;;;-0.94;72.01
58662;BME280;44432;49.786;22.760;2023-04-05T05:15:56;99729.98;;;-0.93;72.09
58662;BME280;44432;49.786;22.760;2023-04-05T05:18:28;99732.63;;;-0.88;72.03
58662;BME280;44432;49.786;22.760;2023-04-05T05:20:59;99733.20;;;-0.78;72.23
58662;BME280;44432;49.786;22.760;2023-04-05T05:23:30;99731.04;;;-0.67;72.25
58662;BME280;44432;49.786;22.760;2023-04-05T05:26:01;99728.60;;;-0.57;71.75
58662;BME280;44432;49.786;22.760;2023-04-05T05:28:32;99729.86;;;-0.47;71.67
58662;BME280;44432;49.786;22.760;2023-04-05T05:31:03;99731.05;;;-0.37;71.38
58662;BME280;44432;49.786;22.760;2023-04-05T05:33:34;99725.83;;;-0.32;70.99
58662;BME280;44432;49.786;22.760;2023-04-05T05:36:06;99726.64;;;-0.32;70.81
58662;BME280;44432;49.786;22.760;2023-04-05T05:38:37;99726.52;;;-0.28;70.86
58662;BME280;44432;49.786;22.760;2023-04-05T05:41:07;99723.55;;;-0.26;70.57
58662;BME280;44432;49.786;22.760;2023-04-05T05:43:38;99723.23;;;-0.24;70.46
58662;BME280;44432;49.786;22.760;2023-04-05T05:46:09;99723.67;;;-0.18;70.74
58662;BME280;44432;49.786;22.760;2023-04-05T05:48:40;99723.83;;;-0.23;70.01
58662;BME280;44432;49.786;22.760;2023-04-05T05:51:11;99725.53;;;-0.29;70.12
58662;BME280;44432;49.786;22.760;2023-04-05T05:53:42;99726.39;;;-0.35;70.13
58662;BME280;44432;49.786;22.760;2023-04-05T05:56:12;99723.86;;;-0.40;70.28
58662;BME280;44432;49.786;22.760;2023-04-05T05:58:43;99718.74;;;-0.43;70.50
58662;BME280;44432;49.786;22.760;2023-04-05T06:01:14;99723.18;;;-0.36;70.72
58662;BME280;44432;49.786;22.760;2023-04-05T06:03:45;99726.32;;;-0.28;70.61
58662;BME280;44432;49.786;22.760;2023-04-05T06:06:16;99723.31;;;-0.21;70.45
58662;BME280;44432;49.786;22.760;2023-04-05T06:08:47;99725.54;;;-0.15;70.22
58662;BME280;44432;49.786;22.760;2023-04-05T06:11:21;99726.69;;;-0.13;70.28
58662;BME280;44432;49.786;22.760;2023-04-05T06:13:53;99724.58;;;0.01;70.27
58662;BME280;44432;49.786;22.760;2023-04-05T06:16:24;99729.20;;;0.12;69.99
58662;BME280;44432;49.786;22.760;2023-04-05T06:18:55;99720.61;;;0.09;69.34
58662;BME280;44432;49.786;22.760;2023-04-05T06:21:26;99725.35;;;0.16;69.73
58662;BME280;44432;49.786;22.760;2023-04-05T06:23:57;99721.02;;;0.30;69.73
58662;BME280;44432;49.786;22.760;2023-04-05T06:26:28;99720.20;;;0.41;69.24
58662;BME280;44432;49.786;22.760;2023-04-05T06:28:58;99718.86;;;0.50;69.18
58662;BME280;44432;49.786;22.760;2023-04-05T06:31:32;99719.86;;;0.62;68.96
58662;BME280;44432;49.786;22.760;2023-04-05T06:34:03;99717.13;;;0.65;68.46
58662;BME280;44432;49.786;22.760;2023-04-05T06:36:34;99721.02;;;0.59;67.99
58662;BME280;44432;49.786;22.760;2023-04-05T06:39:05;99726.11;;;0.50;67.93
58662;BME280;44432;49.786;22.760;2023-04-05T06:41:36;99724.55;;;0.41;67.87
58662;BME280;44432;49.786;22.760;2023-04-05T06:44:07;99721.08;;;0.39;68.40
58662;BME280;44432;49.786;22.760;2023-04-05T06:46:38;99725.99;;;0.38;68.17
58662;BME280;44432;49.786;22.760;2023-04-05T06:49:08;99727.80;;;0.29;67.91
58662;BME280;44432;49.786;22.760;2023-04-05T06:51:39;99729.10;;;0.24;67.83
58662;BME280;44432;49.786;22.760;2023-04-05T06:54:10;99723.27;;;0.22;67.95
58662;BME280;44432;49.786;22.760;2023-04-05T06:56:41;99729.06;;;0.13;67.94
58662;BME280;44432;49.786;22.760;2023-04-05T06:59:11;99727.00;;;0.07;68.05
58662;BME280;44432;49.786;22.760;2023-04-05T07:01:42;99723.04;;;0.01;68.33
58662;BME280;44432;49.786;22.760;2023-04-05T07:04:13;99722.02;;;0.09;68.65
58662;BME280;44432;49.786;22.760;2023-04-05T07:06:44;99727.93;;;0.22;68.86
58662;BME280;44432;49.786;22.760;2023-04-05T07:09:14;99725.52;;;0.34;68.55
58662;BME280;44432;49.786;22.760;2023-04-05T07:11:45;99720.41;;;0.37;68.37
58662;BME280;44432;49.786;22.760;2023-04-05T07:14:16;99717.47;;;0.43;68.30
58662;BME280;44432;49.786;22.760;2023-04-05T07:16:47;99716.84;;;0.48;67.92
58662;BME280;44432;49.786;22.760;2023-04-05T07:19:18;99717.88;;;0.53;67.94
58662;BME280;44432;49.786;22.760;2023-04-05T07:21:49;99716.75;;;0.60;68.07
58662;BME280;44432;49.786;22.760;2023-04-05T07:24:20;99718.98;;;0.70;67.88
58662;BME280;44432;49.786;22.760;2023-04-05T07:26:51;99716.48;;;0.80;67.58
58662;BME280;44432;49.786;22.760;2023-04-05T07:29:21;99718.77;;;0.87;67.17
58662;BME280;44432;49.786;22.760;2023-04-05T07:31:52;99715.38;;;0.98;67.16
58662;BME280;44432;49.786;22.760;2023-04-05T07:34:23;99708.39;;;1.04;66.28
58662;BME280;44432;49.786;22.760;2023-04-05T07:36:55;99711.46;;;1.10;66.56
58662;BME280;44432;49.786;22.760;2023-04-05T07:39:26;99707.89;;;1.24;66.57
58662;BME280;44432;49.786;22.760;2023-04-05T07:41:57;99713.86;;;1.36;66.13
58662;BME280;44432;49.786;22.760;2023-04-05T07:44:28;99712.59;;;1.46;65.96
58662;BME280;44432;49.786;22.760;2023-04-05T07:46:59;99720.14;;;1.58;65.50
58662;BME280;44432;49.786;22.760;2023-04-05T07:49:29;99717.96;;;1.61;64.56
58662;BME280;44432;49.786;22.760;2023-04-05T07:52:00;99720.79;;;1.58;64.11
58662;BME280;44432;49.786;22.760;2023-04-05T07:54:33;99715.70;;;1.46;64.02
58662;BME280;44432;49.786;22.760;2023-04-05T07:57:04;99718.75;;;1.42;64.17
58662;BME280;44432;49.786;22.760;2023-04-05T07:59:35;99719.58;;;1.47;64.29
58662;BME280;44432;49.786;22.760;2023-04-05T08:02:06;99720.42;;;1.48;63.91
58662;BME280;44432;49.786;22.760;2023-04-05T08:04:37;99722.85;;;1.51;64.17
58662;BME280;44432;49.786;22.760;2023-04-05T08:07:07;99722.09;;;1.48;63.44
58662;BME280;44432;49.786;22.760;2023-04-05T08:09:38;99715.50;;;1.52;63.59
58662;BME280;44432;49.786;22.760;2023-04-05T08:12:09;99717.84;;;1.55;63.64
58662;BME280;44432;49.786;22.760;2023-04-05T08:14:40;99722.05;;;1.51;63.32
58662;BME280;44432;49.786;22.760;2023-04-05T08:17:11;99716.75;;;1.55;63.49
58662;BME280;44432;49.786;22.760;2023-04-05T08:19:43;99718.79;;;1.71;63.55
58662;BME280;44432;49.786;22.760;2023-04-05T08:22:13;99720.71;;;1.85;62.30
58662;BME280;44432;49.786;22.760;2023-04-05T08:24:47;99718.46;;;1.94;62.70
58662;BME280;44432;49.786;22.760;2023-04-05T08:27:18;99713.08;;;2.13;62.98
58662;BME280;44432;49.786;22.760;2023-04-05T08:29:49;99715.23;;;2.23;62.12
58662;BME280;44432;49.786;22.760;2023-04-05T08:32:19;99713.06;;;2.26;61.93
58662;BME280;44432;49.786;22.760;2023-04-05T08:34:50;99711.61;;;2.41;61.89
58662;BME280;44432;49.786;22.760;2023-04-05T08:37:21;99708.64;;;2.62;61.58
58662;BME280;44432;49.786;22.760;2023-04-05T08:39:52;99705.27;;;2.84;60.88
58662;BME280;44432;49.786;22.760;2023-04-05T08:42:32;99702.25;;;2.98;60.97
58662;BME280;44432;49.786;22.760;2023-04-05T08:45:07;99698.61;;;3.22;60.81
58662;BME280;44432;49.786;22.760;2023-04-05T08:47:39;99700.95;;;3.40;60.73
58662;BME280;44432;49.786;22.760;2023-04-05T08:50:12;99703.86;;;3.47;59.62
58662;BME280;44432;49.786;22.760;2023-04-05T08:52:46;99700.75;;;3.34;58.46
58662;BME280;44432;49.786;22.760;2023-04-05T08:55:18;99705.77;;;3.20;58.38
58662;BME280;44432;49.786;22.760;2023-04-05T08:57:51;99702.71;;;3.06;57.62
58662;BME280;44432;49.786;22.760;2023-04-05T09:00:23;99699.63;;;3.09;58.13
58662;BME280;44432;49.786;22.760;2023-04-05T09:02:56;99697.58;;;3.25;58.58
58662;BME280;44432;49.786;22.760;2023-04-05T09:05:31;99701.22;;;3.29;57.22
58662;BME280;44432;49.786;22.760;2023-04-05T09:08:01;99697.66;;;3.16;57.36
58662;BME280;44432;49.786;22.760;2023-04-05T09:10:32;99693.40;;;3.07;57.43
58662;BME280;44432;49.786;22.760;2023-04-05T09:13:03;99695.57;;;3.10;57.48
58662;BME280;44432;49.786;22.760;2023-04-05T09:15:35;99693.23;;;3.11;56.99
58662;BME280;44432;49.786;22.760;2023-04-05T09:18:06;99694.20;;;3.21;57.27
58662;BME280;44432;49.786;22.760;2023-04-05T09:20:37;99689.44;;;3.42;56.03
58662;BME280;44432;49.786;22.760;2023-04-05T09:23:08;99684.57;;;3.64;56.21
58662;BME280;44432;49.786;22.760;2023-04-05T09:25:40;99690.66;;;3.71;55.33
58662;BME280;44432;49.786;22.760;2023-04-05T09:28:12;99683.44;;;3.67;54.75
58662;BME280;44432;49.786;22.760;2023-04-05T09:30:45;99682.73;;;3.60;54.18
58662;BME280;44432;49.786;22.760;2023-04-05T09:33:19;99680.45;;;3.53;54.59
58662;BME280;44432;49.786;22.760;2023-04-05T09:35:51;99681.89;;;3.53;53.96
58662;BME280;44432;49.786;22.760;2023-04-05T09:38:42;99679.52;;;3.41;53.60
58662;BME280;44432;49.786;22.760;2023-04-05T09:41:13;99678.21;;;3.41;53.45
58662;BME280;44432;49.786;22.760;2023-04-05T09:43:44;99679.73;;;3.43;52.60
58662;BME280;44432;49.786;22.760;2023-04-05T09:46:31;99676.86;;;3.38;52.92
58662;BME280;44432;49.786;22.760;2023-04-05T09:49:02;99676.10;;;3.36;52.91
58662;BME280;44432;49.786;22.760;2023-04-05T09:51:36;99673.95;;;3.36;53.67
58662;BME280;44432;49.786;22.760;2023-04-05T09:54:09;99678.35;;;3.43;53.49
58662;BME280;44432;49.786;22.760;2023-04-05T09:56:40;99675.91;;;3.35;51.77
58662;BME280;44432;49.786;22.760;2023-04-05T09:59:22;99680.61;;;3.24;51.24
58662;BME280;44432;49.786;22.760;2023-04-05T10:01:53;99671.39;;;3.26;52.09
58662;BME280;44432;49.786;22.760;2023-04-05T10:04:25;99673.33;;;3.42;52.61
58662;BME280;44432;49.786;22.760;2023-04-05T10:06:57;99672.16;;;3.63;53.00
58662;BME280;44432;49.786;22.760;2023-04-05T10:09:28;99672.88;;;3.79;52.28
58662;BME280;44432;49.786;22.760;2023-04-05T10:12:00;99675.80;;;3.79;51.10
58662;BME280;44432;49.786;22.760;2023-04-05T10:14:32;99667.69;;;3.62;50.99
58662;BME280;44432;49.786;22.760;2023-04-05T10:17:10;99665.42;;;3.60;51.27
58662;BME280;44432;49.786;22.760;2023-04-05T10:19:50;99664.45;;;3.69;51.38
58662;BME280;44432;49.786;22.760;2023-04-05T10:22:28;99663.82;;;3.91;51.45
58662;BME280;44432;49.786;22.760;2023-04-05T10:25:07;99659.73;;;4.13;51.61
58662;BME280;44432;49.786;22.760;2023-04-05T10:27:40;99661.06;;;4.25;51.12
58662;BME280;44432;49.786;22.760;2023-04-05T10:30:18;99657.54;;;4.24;50.58
58662;BME280;44432;49.786;22.760;2023-04-05T10:33:09;99659.99;;;4.25;50.71
58662;BME280;44432;49.786;22.760;2023-04-05T10:35:52;99659.80;;;4.31;50.48
58662;BME280;44432;49.786;22.760;2023-04-05T10:38:27;99652.55;;;4.35;50.17
58662;BME280;44432;49.786;22.760;2023-04-05T10:41:04;99647.84;;;4.43;49.71
58662;BME280;44432;49.786;22.760;2023-04-05T10:43:39;99652.38;;;4.52;49.00
58662;BME280;44432;49.786;22.760;2023-04-05T10:46:12;99650.98;;;4.49;48.52
58662;BME280;44432;49.786;22.760;2023-04-05T10:48:53;99648.20;;;4.44;48.85
58662;BME280;44432;49.786;22.760;2023-04-05T10:51:28;99653.20;;;4.37;48.34
58662;BME280;44432;49.786;22.760;2023-04-05T10:54:00;99658.09;;;4.26;48.67
58662;BME280;44432;49.786;22.760;2023-04-05T10:56:32;99662.58;;;4.22;48.05
58662;BME280;44432;49.786;22.760;2023-04-05T10:59:03;99663.16;;;4.23;47.70
58662;BME280;44432;49.786;22.760;2023-04-05T11:01:35;99660.30;;;4.19;48.01
58662;BME280;44432;49.786;22.760;2023-04-05T11:04:13;99652.90;;;4.38;49.05
58662;BME280;44432;49.786;22.760;2023-04-05T11:06:45;99652.98;;;4.69;49.11
58662;BME280;44432;49.786;22.760;2023-04-05T11:09:18;99651.63;;;4.92;47.88
58662;BME280;44432;49.786;22.760;2023-04-05T11:11:50;99651.93;;;4.97;47.83
58662;BME280;44432;49.786;22.760;2023-04-05T11:14:23;99649.05;;;4.99;47.91
58662;BME280;44432;49.786;22.760;2023-04-05T11:16:55;99655.78;;;5.02;47.60
58662;BME280;44432;49.786;22.760;2023-04-05T11:19:49;99654.77;;;4.96;47.58
58662;BME280;44432;49.786;22.760;2023-04-05T11:22:28;99657.25;;;4.83;46.90
58662;BME280;44432;49.786;22.760;2023-04-05T11:25:00;99660.39;;;4.80;47.31
58662;BME280;44432;49.786;22.760;2023-04-05T11:27:33;99651.60;;;4.79;47.37
58662;BME280;44432;49.786;22.760;2023-04-05T11:30:07;99652.83;;;4.87;47.16
58662;BME280;44432;49.786;22.760;2023-04-05T11:32:42;99651.17;;;4.85;46.72
58662;BME280;44432;49.786;22.760;2023-04-05T11:35:17;99655.67;;;4.88;47.14
58662;BME280;44432;49.786;22.760;2023-04-05T11:38:01;99650.90;;;5.05;47.54
58662;BME280;44432;49.786;22.760;2023-04-05T11:40:36;99654.70;;;5.27;47.58
58662;BME280;44432;49.786;22.760;2023-04-05T11:43:07;99652.08;;;5.50;47.33
58662;BME280;44432;49.786;22.760;2023-04-05T11:45:39;99658.09;;;5.53;44.98
58662;BME280;44432;49.786;22.760;2023-04-05T11:48:11;99657.31;;;5.36;44.78
58662;BME280;44432;49.786;22.760;2023-04-05T11:50:42;99655.89;;;5.29;44.78
58662;BME280;44432;49.786;22.760;2023-04-05T11:53:15;99658.16;;;5.13;45.07
58662;BME280;44432;49.786;22.760;2023-04-05T11:55:47;99661.09;;;5.05;45.80
58662;BME280;44432;49.786;22.760;2023-04-05T11:58:22;99664.36;;;5.00;45.20
58662;BME280;44432;49.786;22.760;2023-04-05T12:01:00;99664.16;;;4.77;45.27
58662;BME280;44432;49.786;22.760;2023-04-05T12:03:31;99659.77;;;4.55;46.13
58662;BME280;44432;49.786;22.760;2023-04-05T12:06:03;99660.78;;;4.50;46.53
58662;BME280;44432;49.786;22.760;2023-04-05T12:08:42;99659.73;;;4.59;47.08
58662;BME280;44432;49.786;22.760;2023-04-05T12:11:24;99654.79;;;4.67;46.78
58662;BME280;44432;49.786;22.760;2023-04-05T12:13:56;99652.60;;;4.65;46.37
58662;BME280;44432;49.786;22.760;2023-04-05T12:16:28;99656.69;;;4.66;46.33
58662;BME280;44432;49.786;22.760;2023-04-05T12:18:59;99656.52;;;4.71;46.07
58662;BME280;44432;49.786;22.760;2023-04-05T12:21:30;99653.66;;;4.81;46.17
58662;BME280;44432;49.786;22.760;2023-04-05T12:24:01;99659.98;;;4.97;45.62
58662;BME280;44432;49.786;22.760;2023-04-05T12:26:32;99656.52;;;4.93;44.90
58662;BME280;44432;49.786;22.760;2023-04-05T12:29:05;99653.83;;;4.97;45.23
58662;BME280;44432;49.786;22.760;2023-04-05T12:31:42;99653.79;;;4.99;44.55
58662;BME280;44432;49.786;22.760;2023-04-05T12:34:14;99655.55;;;5.02;45.18
58662;BME280;44432;49.786;22.760;2023-04-05T12:36:45;99659.02;;;5.15;45.11
58662;BME280;44432;49.786;22.760;2023-04-05T12:39:17;99655.11;;;5.08;44.11
58662;BME280;44432;49.786;22.760;2023-04-05T12:41:57;99657.52;;;4.93;44.20
58662;BME280;44432;49.786;22.760;2023-04-05T12:44:31;99654.88;;;4.81;43.86
58662;BME280;44432;49.786;22.760;2023-04-05T12:47:04;99654.88;;;4.68;43.75
58662;BME280;44432;49.786;22.760;2023-04-05T12:49:39;99651.32;;;4.74;44.74
58662;BME280;44432;49.786;22.760;2023-04-05T12:52:09;99653.86;;;4.92;44.29
58662;BME280;44432;49.786;22.760;2023-04-05T12:54:40;99652.49;;;4.93;43.57
58662;BME280;44432;49.786;22.760;2023-04-05T12:57:11;99650.69;;;4.92;43.89
58662;BME280;44432;49.786;22.760;2023-04-05T12:59:42;99646.46;;;5.01;43.50
58662;BME280;44432;49.786;22.760;2023-04-05T13:02:13;99642.91;;;5.08;43.65
58662;BME280;44432;49.786;22.760;2023-04-05T13:04:44;99642.03;;;5.28;43.96
58662;BME280;44432;49.786;22.760;2023-04-05T13:07:14;99639.45;;;5.47;43.19
58662;BME280;44432;49.786;22.760;2023-04-05T13:09:45;99642.58;;;5.45;42.60
58662;BME280;44432;49.786;22.760;2023-04-05T13:12:16;99644.95;;;5.41;42.66
58662;BME280;44432;49.786;22.760;2023-04-05T13:14:47;99643.38;;;5.35;42.40
58662;BME280;44432;49.786;22.760;2023-04-05T13:17:17;99639.39;;;5.12;41.97
58662;BME280;44432;49.786;22.760;2023-04-05T13:19:48;99637.05;;;4.99;42.73
58662;BME280;44432;49.786;22.760;2023-04-05T13:22:19;99635.95;;;4.93;43.22